Pagina principale
METAR-TAF:

METAR-TAF

Aeroporti :

Aeroporto di Reggio Calabria

Reggio Calabria, Italia

latitudine: 38-04N, longitudine: 015-39E, altezza: 11 m

Osservazione

Il bollettino è stato emesso 33 minuti fa, alle 11:50 UTC
Vento 11 kt da nord
Temperature 30°C
Umidità 24%
Pressione 1016 hPa
Visibilità 10 km o più

METAR: LICR 271150Z AUTO 36011KT 9999 SCT150/// BKN180/// 30/07 Q1016

Ora: 14:23 (12:23 UTC)

Previsione

Il bollettino è stato emesso 1 ora e 23 minuti fa, alle 11:00 UTC
Previsione valida dal 27 alle 12 UTC al 28 alle 12 UTC
Vento 12 kt da nord
Visibilità 10 km o più
Nubi sparse ad un'altezza di 3000 ft

TAF: LICR 271100Z 2712/2812 36012KT 9999 SCT030

Osservazioni e previsioni meteorologiche di più di 4000 aeroporti (messaggi METAR e TAF).

Le stazioni disponibili sono rappresentate dai dischi gialli e rossi sulla carta.

Puntare il mouse per vedere il nome della stazione.

Clicca sopra per visualizzare le osservazioni e previsioni meteorologiche.

Per cambiare la mappa : fare clic sui pulsanti verdi con una croce nera per ingrandire, il pulsante verde con un trattino per diminuire, o sulla freccia verde per le mappe adiacenti.


METAR-TAF: